sensor_id;sensor_type;location;lat;lon;timestamp;temperature;humidity
530;DHT22;251;48.704;9.210;2023-06-01T00:02:18;12.20;26.90
530;DHT22;251;48.704;9.210;2023-06-01T00:04:46;12.40;27.50
530;DHT22;251;48.704;9.210;2023-06-01T00:07:16;12.40;28.00
530;DHT22;251;48.704;9.210;2023-06-01T00:09:42;12.30;28.10
530;DHT22;251;48.704;9.210;2023-06-01T00:12:10;12.20;28.80
530;DHT22;251;48.704;9.210;2023-06-01T00:14:36;12.40;28.70
530;DHT22;251;48.704;9.210;2023-06-01T00:17:03;12.20;28.70
530;DHT22;251;48.704;9.210;2023-06-01T00:19:31;12.20;28.40
530;DHT22;251;48.704;9.210;2023-06-01T00:21:59;12.10;29.00
530;DHT22;251;48.704;9.210;2023-06-01T00:24:26;12.20;28.80
530;DHT22;251;48.704;9.210;2023-06-01T00:26:52;12.00;28.60
530;DHT22;251;48.704;9.210;2023-06-01T00:29:19;12.00;29.30
530;DHT22;251;48.704;9.210;2023-06-01T00:31:47;11.90;29.30
530;DHT22;251;48.704;9.210;2023-06-01T00:34:13;12.10;29.60
530;DHT22;251;48.704;9.210;2023-06-01T00:36:40;12.10;29.90
530;DHT22;251;48.704;9.210;2023-06-01T00:39:08;11.60;29.90
530;DHT22;251;48.704;9.210;2023-06-01T00:41:35;12.00;30.00
530;DHT22;251;48.704;9.210;2023-06-01T00:44:02;11.90;29.70
530;DHT22;251;48.704;9.210;2023-06-01T00:46:30;11.60;29.80
530;DHT22;251;48.704;9.210;2023-06-01T00:48:58;11.90;30.10
530;DHT22;251;48.704;9.210;2023-06-01T00:51:25;11.60;30.10
530;DHT22;251;48.704;9.210;2023-06-01T00:53:52;11.80;30.40
530;DHT22;251;48.704;9.210;2023-06-01T00:56:20;11.30;29.90
530;DHT22;251;48.704;9.210;2023-06-01T00:58:47;11.70;29.90
530;DHT22;251;48.704;9.210;2023-06-01T01:01:15;11.60;30.60
530;DHT22;251;48.704;9.210;2023-06-01T01:03:46;11.40;31.40
530;DHT22;251;48.704;9.210;2023-06-01T01:06:21;11.70;31.20
530;DHT22;251;48.704;9.210;2023-06-01T01:09:02;11.40;30.70
530;DHT22;251;48.704;9.210;2023-06-01T01:11:37;11.40;31.50
530;DHT22;251;48.704;9.210;2023-06-01T01:14:11;11.30;31.10
530;DHT22;251;48.704;9.210;2023-06-01T01:16:44;11.20;32.10
530;DHT22;251;48.704;9.210;2023-06-01T01:19:24;11.40;32.70
530;DHT22;251;48.704;9.210;2023-06-01T01:22:07;11.20;31.80
530;DHT22;251;48.704;9.210;2023-06-01T01:24:43;11.20;32.00
530;DHT22;251;48.704;9.210;2023-06-01T01:27:23;11.30;32.30
530;DHT22;251;48.704;9.210;2023-06-01T01:29:54;11.20;32.30
530;DHT22;251;48.704;9.210;2023-06-01T01:32:26;11.20;32.50
530;DHT22;251;48.704;9.210;2023-06-01T01:34:53;11.30;33.60
530;DHT22;251;48.704;9.210;2023-06-01T01:37:22;10.90;33.60
530;DHT22;251;48.704;9.210;2023-06-01T01:39:49;11.10;34.30
530;DHT22;251;48.704;9.210;2023-06-01T01:42:15;11.00;33.30
530;DHT22;251;48.704;9.210;2023-06-01T01:44:43;11.10;33.80
530;DHT22;251;48.704;9.210;2023-06-01T01:47:18;11.00;34.10
530;DHT22;251;48.704;9.210;2023-06-01T01:49:49;10.80;33.70
530;DHT22;251;48.704;9.210;2023-06-01T01:52:25;10.90;34.70
530;DHT22;251;48.704;9.210;2023-06-01T01:54:53;11.00;34.00
530;DHT22;251;48.704;9.210;2023-06-01T01:57:23;11.10;34.60
530;DHT22;251;48.704;9.210;2023-06-01T01:59:50;10.80;34.60
530;DHT22;251;48.704;9.210;2023-06-01T02:02:19;10.50;34.20
530;DHT22;251;48.704;9.210;2023-06-01T02:04:45;10.90;35.30
530;DHT22;251;48.704;9.210;2023-06-01T02:07:12;10.60;35.10
530;DHT22;251;48.704;9.210;2023-06-01T02:09:40;10.80;34.90
530;DHT22;251;48.704;9.210;2023-06-01T02:12:09;10.70;35.80
530;DHT22;251;48.704;9.210;2023-06-01T02:14:36;10.70;36.00
530;DHT22;251;48.704;9.210;2023-06-01T02:17:02;10.50;35.60
530;DHT22;251;48.704;9.210;2023-06-01T02:19:32;10.70;35.60
530;DHT22;251;48.704;9.210;2023-06-01T02:21:59;10.50;36.20
530;DHT22;251;48.704;9.210;2023-06-01T02:24:26;10.40;37.30
530;DHT22;251;48.704;9.210;2023-06-01T02:26:53;10.60;37.10
530;DHT22;251;48.704;9.210;2023-06-01T02:29:21;10.50;37.30
530;DHT22;251;48.704;9.210;2023-06-01T02:31:49;10.40;37.00
530;DHT22;251;48.704;9.210;2023-06-01T02:34:16;10.50;37.30
530;DHT22;251;48.704;9.210;2023-06-01T02:36:46;10.50;37.60
530;DHT22;251;48.704;9.210;2023-06-01T02:39:13;10.50;37.90
530;DHT22;251;48.704;9.210;2023-06-01T02:41:41;10.20;37.90
530;DHT22;251;48.704;9.210;2023-06-01T02:44:07;10.00;38.40
530;DHT22;251;48.704;9.210;2023-06-01T02:46:34;10.20;38.60
530;DHT22;251;48.704;9.210;2023-06-01T02:49:01;9.90;39.50
530;DHT22;251;48.704;9.210;2023-06-01T02:51:29;10.20;40.20
530;DHT22;251;48.704;9.210;2023-06-01T02:54:14;10.10;39.80
530;DHT22;251;48.704;9.210;2023-06-01T02:56:41;10.20;41.00
530;DHT22;251;48.704;9.210;2023-06-01T02:59:15;10.10;41.10
530;DHT22;251;48.704;9.210;2023-06-01T03:01:57;10.20;41.10
530;DHT22;251;48.704;9.210;2023-06-01T03:04:23;10.10;41.30
530;DHT22;251;48.704;9.210;2023-06-01T03:06:54;9.90;41.80
530;DHT22;251;48.704;9.210;2023-06-01T03:09:38;10.30;42.70
530;DHT22;251;48.704;9.210;2023-06-01T03:12:10;10.20;43.00
530;DHT22;251;48.704;9.210;2023-06-01T03:14:37;10.20;41.50
530;DHT22;251;48.704;9.210;2023-06-01T03:17:04;10.00;42.00
530;DHT22;251;48.704;9.210;2023-06-01T03:19:31;10.00;42.20
530;DHT22;251;48.704;9.210;2023-06-01T03:22:04;10.00;41.70
530;DHT22;251;48.704;9.210;2023-06-01T03:24:31;10.00;41.60
530;DHT22;251;48.704;9.210;2023-06-01T03:27:03;10.10;43.30
530;DHT22;251;48.704;9.210;2023-06-01T03:29:33;9.80;43.70
530;DHT22;251;48.704;9.210;2023-06-01T03:32:00;10.00;42.80
530;DHT22;251;48.704;9.210;2023-06-01T03:34:27;10.00;43.10
530;DHT22;251;48.704;9.210;2023-06-01T03:36:55;9.80;44.20
530;DHT22;251;48.704;9.210;2023-06-01T03:39:22;10.00;45.10
530;DHT22;251;48.704;9.210;2023-06-01T03:41:49;9.90;45.70
530;DHT22;251;48.704;9.210;2023-06-01T03:44:17;9.90;43.20
530;DHT22;251;48.704;9.210;2023-06-01T03:46:45;10.00;42.80
530;DHT22;251;48.704;9.210;2023-06-01T03:49:12;9.90;43.60
530;DHT22;251;48.704;9.210;2023-06-01T03:51:39;10.10;42.30
530;DHT22;251;48.704;9.210;2023-06-01T03:54:05;9.70;41.80
530;DHT22;251;48.704;9.210;2023-06-01T03:56:32;10.00;42.30
530;DHT22;251;48.704;9.210;2023-06-01T03:59:01;9.90;43.00
530;DHT22;251;48.704;9.210;2023-06-01T04:01:29;10.00;41.90
530;DHT22;251;48.704;9.210;2023-06-01T04:03:58;10.00;41.70
530;DHT22;251;48.704;9.210;2023-06-01T04:06:24;9.80;42.20
530;DHT22;251;48.704;9.210;2023-06-01T04:08:55;10.10;43.00
530;DHT22;251;48.704;9.210;2023-06-01T04:11:25;10.20;40.70
530;DHT22;251;48.704;9.210;2023-06-01T04:13:52;10.20;41.60
530;DHT22;251;48.704;9.210;2023-06-01T04:16:19;9.80;42.50
530;DHT22;251;48.704;9.210;2023-06-01T04:18:48;10.10;40.60
530;DHT22;251;48.704;9.210;2023-06-01T04:21:19;10.30;42.00
530;DHT22;251;48.704;9.210;2023-06-01T04:23:46;10.10;40.90
530;DHT22;251;48.704;9.210;2023-06-01T04:26:14;10.50;40.90
530;DHT22;251;48.704;9.210;2023-06-01T04:28:42;10.40;40.30
530;DHT22;251;48.704;9.210;2023-06-01T04:31:11;10.50;40.80
530;DHT22;251;48.704;9.210;2023-06-01T04:33:43;10.60;40.30
530;DHT22;251;48.704;9.210;2023-06-01T04:36:13;10.60;40.40
530;DHT22;251;48.704;9.210;2023-06-01T04:38:45;10.50;40.70
530;DHT22;251;48.704;9.210;2023-06-01T04:41:17;10.80;40.40
530;DHT22;251;48.704;9.210;2023-06-01T04:43:46;10.80;40.00
530;DHT22;251;48.704;9.210;2023-06-01T04:46:17;11.00;39.30
530;DHT22;251;48.704;9.210;2023-06-01T04:48:45;11.00;37.90
530;DHT22;251;48.704;9.210;2023-06-01T04:51:14;11.10;37.50
530;DHT22;251;48.704;9.210;2023-06-01T04:53:45;11.20;37.40
530;DHT22;251;48.704;9.210;2023-06-01T04:56:17;11.30;39.80
530;DHT22;251;48.704;9.210;2023-06-01T04:58:44;11.20;37.80
530;DHT22;251;48.704;9.210;2023-06-01T05:01:13;11.50;38.00
530;DHT22;251;48.704;9.210;2023-06-01T05:03:41;11.50;36.90
530;DHT22;251;48.704;9.210;2023-06-01T05:06:09;11.90;36.80
530;DHT22;251;48.704;9.210;2023-06-01T05:08:38;12.00;36.20
530;DHT22;251;48.704;9.210;2023-06-01T05:11:05;12.20;34.50
530;DHT22;251;48.704;9.210;2023-06-01T05:13:32;12.40;36.70
530;DHT22;251;48.704;9.210;2023-06-01T05:16:00;12.50;37.10
530;DHT22;251;48.704;9.210;2023-06-01T05:18:26;12.30;34.00
530;DHT22;251;48.704;9.210;2023-06-01T05:20:53;12.60;34.10
530;DHT22;251;48.704;9.210;2023-06-01T05:23:20;12.80;32.30
530;DHT22;251;48.704;9.210;2023-06-01T05:25:49;12.70;33.00
530;DHT22;251;48.704;9.210;2023-06-01T05:28:16;12.90;31.60
530;DHT22;251;48.704;9.210;2023-06-01T05:30:42;13.40;30.70
530;DHT22;251;48.704;9.210;2023-06-01T05:33:09;13.30;30.80
530;DHT22;251;48.704;9.210;2023-06-01T05:35:36;13.30;29.40
530;DHT22;251;48.704;9.210;2023-06-01T05:38:04;13.40;29.30
530;DHT22;251;48.704;9.210;2023-06-01T05:40:31;13.80;28.60
530;DHT22;251;48.704;9.210;2023-06-01T05:42:59;13.70;27.40
530;DHT22;251;48.704;9.210;2023-06-01T05:45:26;14.00;26.00
530;DHT22;251;48.704;9.210;2023-06-01T05:47:52;14.40;25.60
530;DHT22;251;48.704;9.210;2023-06-01T05:50:19;14.40;24.70
530;DHT22;251;48.704;9.210;2023-06-01T05:52:46;14.50;24.00
530;DHT22;251;48.704;9.210;2023-06-01T05:55:13;15.00;23.40
530;DHT22;251;48.704;9.210;2023-06-01T05:57:40;14.90;21.30
530;DHT22;251;48.704;9.210;2023-06-01T06:00:09;15.00;18.60
530;DHT22;251;48.704;9.210;2023-06-01T06:02:41;15.30;18.90
530;DHT22;251;48.704;9.210;2023-06-01T06:05:08;15.30;16.90
530;DHT22;251;48.704;9.210;2023-06-01T06:07:35;15.60;16.00
530;DHT22;251;48.704;9.210;2023-06-01T06:10:03;15.90;16.80
530;DHT22;251;48.704;9.210;2023-06-01T06:12:30;15.90;13.90
530;DHT22;251;48.704;9.210;2023-06-01T06:14:57;15.80;13.10
530;DHT22;251;48.704;9.210;2023-06-01T06:17:25;16.20;13.30
530;DHT22;251;48.704;9.210;2023-06-01T06:19:51;16.30;12.00
530;DHT22;251;48.704;9.210;2023-06-01T06:22:18;16.40;12.00
530;DHT22;251;48.704;9.210;2023-06-01T06:24:45;16.50;10.70
530;DHT22;251;48.704;9.210;2023-06-01T06:27:13;16.60;10.90
530;DHT22;251;48.704;9.210;2023-06-01T06:29:40;16.60;10.90
530;DHT22;251;48.704;9.210;2023-06-01T06:32:07;17.00;11.30
530;DHT22;251;48.704;9.210;2023-06-01T06:38:22;17.10;10.60
530;DHT22;251;48.704;9.210;2023-06-01T06:40:48;17.10;10.10
530;DHT22;251;48.704;9.210;2023-06-01T06:43:16;17.40;10.40
530;DHT22;251;48.704;9.210;2023-06-01T06:45:43;17.40;9.60
530;DHT22;251;48.704;9.210;2023-06-01T06:48:10;17.40;9.60
530;DHT22;251;48.704;9.210;2023-06-01T06:50:37;17.60;8.20
530;DHT22;251;48.704;9.210;2023-06-01T06:53:06;17.90;8.00
530;DHT22;251;48.704;9.210;2023-06-01T06:55:34;17.90;7.80
530;DHT22;251;48.704;9.210;2023-06-01T06:58:01;17.80;7.40
530;DHT22;251;48.704;9.210;2023-06-01T07:00:28;18.10;7.90
530;DHT22;251;48.704;9.210;2023-06-01T07:02:55;17.90;7.40
530;DHT22;251;48.704;9.210;2023-06-01T07:05:21;18.10;6.80
530;DHT22;251;48.704;9.210;2023-06-01T07:07:48;18.30;7.00
530;DHT22;251;48.704;9.210;2023-06-01T07:10:15;18.30;7.50
530;DHT22;251;48.704;9.210;2023-06-01T07:12:43;18.40;7.10
530;DHT22;251;48.704;9.210;2023-06-01T07:15:14;18.50;6.60
530;DHT22;251;48.704;9.210;2023-06-01T07:17:41;18.90;7.10
530;DHT22;251;48.704;9.210;2023-06-01T07:20:09;18.60;6.70
530;DHT22;251;48.704;9.210;2023-06-01T07:22:37;18.70;6.30
530;DHT22;251;48.704;9.210;2023-06-01T07:25:05;18.80;5.80
530;DHT22;251;48.704;9.210;2023-06-01T07:31:20;19.00;6.60
530;DHT22;251;48.704;9.210;2023-06-01T07:33:47;19.10;5.50
530;DHT22;251;48.704;9.210;2023-06-01T07:36:14;19.30;6.10
530;DHT22;251;48.704;9.210;2023-06-01T07:38:40;19.30;5.60
530;DHT22;251;48.704;9.210;2023-06-01T07:41:09;19.40;4.10
530;DHT22;251;48.704;9.210;2023-06-01T07:43:36;19.60;5.00
530;DHT22;251;48.704;9.210;2023-06-01T07:46:03;19.60;3.70
530;DHT22;251;48.704;9.210;2023-06-01T07:48:31;19.70;4.20
530;DHT22;251;48.704;9.210;2023-06-01T07:54:48;20.00;3.90
530;DHT22;251;48.704;9.210;2023-06-01T07:57:15;20.10;3.80
530;DHT22;251;48.704;9.210;2023-06-01T07:59:42;20.20;2.40
530;DHT22;251;48.704;9.210;2023-06-01T08:02:09;20.20;3.20
530;DHT22;251;48.704;9.210;2023-06-01T08:04:39;20.30;3.00
530;DHT22;251;48.704;9.210;2023-06-01T08:07:06;20.50;2.80
530;DHT22;251;48.704;9.210;2023-06-01T08:09:35;20.60;2.90
530;DHT22;251;48.704;9.210;2023-06-01T08:12:03;20.70;2.50
530;DHT22;251;48.704;9.210;2023-06-01T08:14:31;20.90;1.50
530;DHT22;251;48.704;9.210;2023-06-01T08:16:59;21.00;2.00
530;DHT22;251;48.704;9.210;2023-06-01T08:19:27;21.20;1.80
530;DHT22;251;48.704;9.210;2023-06-01T08:21:55;21.30;1.10
530;DHT22;251;48.704;9.210;2023-06-01T08:24:22;21.40;1.70
530;DHT22;251;48.704;9.210;2023-06-01T08:26:50;21.50;1.00
530;DHT22;251;48.704;9.210;2023-06-01T08:29:17;21.60;1.00
530;DHT22;251;48.704;9.210;2023-06-01T08:35:31;21.90;1.00
530;DHT22;251;48.704;9.210;2023-06-01T08:38:00;22.10;1.00
530;DHT22;251;48.704;9.210;2023-06-01T08:40:27;22.20;1.00
530;DHT22;251;48.704;9.210;2023-06-01T08:42:58;22.20;1.00
530;DHT22;251;48.704;9.210;2023-06-01T08:45:26;22.30;1.00
530;DHT22;251;48.704;9.210;2023-06-01T08:47:53;22.20;1.00
530;DHT22;251;48.704;9.210;2023-06-01T08:50:21;22.30;1.00
530;DHT22;251;48.704;9.210;2023-06-01T08:52:49;22.30;1.00
530;DHT22;251;48.704;9.210;2023-06-01T08:55:21;22.50;1.00
530;DHT22;251;48.704;9.210;2023-06-01T08:57:48;22.70;1.00
530;DHT22;251;48.704;9.210;2023-06-01T09:00:16;22.90;1.00
530;DHT22;251;48.704;9.210;2023-06-01T09:02:43;23.10;1.00
530;DHT22;251;48.704;9.210;2023-06-01T09:05:10;23.20;1.00
530;DHT22;251;48.704;9.210;2023-06-01T09:07:38;23.30;1.00
530;DHT22;251;48.704;9.210;2023-06-01T09:10:06;23.40;1.00
530;DHT22;251;48.704;9.210;2023-06-01T09:12:34;23.70;1.00
530;DHT22;251;48.704;9.210;2023-06-01T09:15:09;23.70;1.00
530;DHT22;251;48.704;9.210;2023-06-01T09:17:37;23.90;1.00
530;DHT22;251;48.704;9.210;2023-06-01T09:20:05;24.10;1.00
530;DHT22;251;48.704;9.210;2023-06-01T09:22:39;24.20;1.00
530;DHT22;251;48.704;9.210;2023-06-01T09:25:07;24.40;1.00
530;DHT22;251;48.704;9.210;2023-06-01T09:27:46;24.50;1.00
530;DHT22;251;48.704;9.210;2023-06-01T09:30:15;24.60;1.00
530;DHT22;251;48.704;9.210;2023-06-01T09:32:43;24.80;1.00
530;DHT22;251;48.704;9.210;2023-06-01T09:35:13;25.00;1.00
530;DHT22;251;48.704;9.210;2023-06-01T09:37:54;25.10;1.00
530;DHT22;251;48.704;9.210;2023-06-01T09:40:21;25.20;1.00
530;DHT22;251;48.704;9.210;2023-06-01T09:42:49;25.40;1.00
530;DHT22;251;48.704;9.210;2023-06-01T09:45:19;25.50;1.00
530;DHT22;251;48.704;9.210;2023-06-01T09:47:46;25.70;1.00
530;DHT22;251;48.704;9.210;2023-06-01T09:50:31;25.80;1.00
530;DHT22;251;48.704;9.210;2023-06-01T09:52:58;26.00;1.00
530;DHT22;251;48.704;9.210;2023-06-01T09:55:25;26.20;1.00
530;DHT22;251;48.704;9.210;2023-06-01T09:58:16;26.30;1.00
530;DHT22;251;48.704;9.210;2023-06-01T10:00:45;26.30;1.00
530;DHT22;251;48.704;9.210;2023-06-01T10:03:13;26.50;1.00
530;DHT22;251;48.704;9.210;2023-06-01T10:05:41;26.70;1.00
530;DHT22;251;48.704;9.210;2023-06-01T10:08:10;26.80;1.00
530;DHT22;251;48.704;9.210;2023-06-01T10:10:38;26.90;1.00
530;DHT22;251;48.704;9.210;2023-06-01T10:13:06;27.10;1.00
530;DHT22;251;48.704;9.210;2023-06-01T10:15:33;27.40;1.00
530;DHT22;251;48.704;9.210;2023-06-01T10:18:02;27.60;1.00
530;DHT22;251;48.704;9.210;2023-06-01T10:20:31;27.70;1.00
530;DHT22;251;48.704;9.210;2023-06-01T10:22:59;27.80;1.00
530;DHT22;251;48.704;9.210;2023-06-01T10:25:29;28.00;1.00
530;DHT22;251;48.704;9.210;2023-06-01T10:27:59;28.20;1.00
530;DHT22;251;48.704;9.210;2023-06-01T10:30:28;28.40;1.00
530;DHT22;251;48.704;9.210;2023-06-01T10:32:55;28.50;1.00
530;DHT22;251;48.704;9.210;2023-06-01T10:35:51;28.80;1.00
530;DHT22;251;48.704;9.210;2023-06-01T10:38:27;29.00;1.00
530;DHT22;251;48.704;9.210;2023-06-01T10:41:29;29.30;1.00
530;DHT22;251;48.704;9.210;2023-06-01T10:43:57;29.40;1.00
530;DHT22;251;48.704;9.210;2023-06-01T10:46:39;29.70;1.00
530;DHT22;251;48.704;9.210;2023-06-01T10:49:07;29.80;1.00
530;DHT22;251;48.704;9.210;2023-06-01T10:51:34;29.90;1.00
530;DHT22;251;48.704;9.210;2023-06-01T10:57:24;30.20;1.00
530;DHT22;251;48.704;9.210;2023-06-01T11:00:11;30.40;1.00
530;DHT22;251;48.704;9.210;2023-06-01T11:02:47;30.70;1.00
530;DHT22;251;48.704;9.210;2023-06-01T11:05:40;30.90;1.00
530;DHT22;251;48.704;9.210;2023-06-01T11:08:49;30.60;1.00
530;DHT22;251;48.704;9.210;2023-06-01T11:11:09;31.00;1.00
530;DHT22;251;48.704;9.210;2023-06-01T11:13:37;31.50;1.00
530;DHT22;251;48.704;9.210;2023-06-01T11:16:27;31.80;1.00
530;DHT22;251;48.704;9.210;2023-06-01T11:18:56;31.80;1.00
530;DHT22;251;48.704;9.210;2023-06-01T11:21:29;32.30;1.00
530;DHT22;251;48.704;9.210;2023-06-01T11:23:57;32.60;1.00
530;DHT22;251;48.704;9.210;2023-06-01T11:26:29;33.20;1.00
530;DHT22;251;48.704;9.210;2023-06-01T11:29:04;33.60;1.00
530;DHT22;251;48.704;9.210;2023-06-01T11:31:35;34.00;1.00
530;DHT22;251;48.704;9.210;2023-06-01T11:34:04;34.60;1.00
530;DHT22;251;48.704;9.210;2023-06-01T11:36:36;34.70;1.00
530;DHT22;251;48.704;9.210;2023-06-01T11:39:04;34.90;1.00
530;DHT22;251;48.704;9.210;2023-06-01T11:41:33;35.30;1.00
530;DHT22;251;48.704;9.210;2023-06-01T11:44:01;35.90;1.00
530;DHT22;251;48.704;9.210;2023-06-01T11:46:27;36.60;1.00
530;DHT22;251;48.704;9.210;2023-06-01T11:49:02;37.00;1.00
530;DHT22;251;48.704;9.210;2023-06-01T11:51:33;37.10;1.00
530;DHT22;251;48.704;9.210;2023-06-01T11:54:02;37.30;1.00
530;DHT22;251;48.704;9.210;2023-06-01T11:56:30;37.60;1.00
530;DHT22;251;48.704;9.210;2023-06-01T11:58:58;37.70;1.00
530;DHT22;251;48.704;9.210;2023-06-01T12:01:26;37.80;1.00
530;DHT22;251;48.704;9.210;2023-06-01T12:03:53;38.20;1.00
530;DHT22;251;48.704;9.210;2023-06-01T12:06:24;38.00;1.00
530;DHT22;251;48.704;9.210;2023-06-01T12:08:54;37.70;1.00
530;DHT22;251;48.704;9.210;2023-06-01T12:11:23;37.70;1.00
530;DHT22;251;48.704;9.210;2023-06-01T12:13:52;37.40;1.00
530;DHT22;251;48.704;9.210;2023-06-01T12:16:19;37.80;1.00
530;DHT22;251;48.704;9.210;2023-06-01T12:18:46;38.30;1.00
530;DHT22;251;48.704;9.210;2023-06-01T12:21:13;38.30;1.00
530;DHT22;251;48.704;9.210;2023-06-01T12:23:40;38.90;1.00
530;DHT22;251;48.704;9.210;2023-06-01T12:26:09;39.20;1.00
530;DHT22;251;48.704;9.210;2023-06-01T12:28:50;39.00;1.00
530;DHT22;251;48.704;9.210;2023-06-01T12:31:19;38.40;1.00
530;DHT22;251;48.704;9.210;2023-06-01T12:33:46;38.50;1.00
530;DHT22;251;48.704;9.210;2023-06-01T12:36:31;38.60;1.00
530;DHT22;251;48.704;9.210;2023-06-01T12:38:59;39.10;1.00
530;DHT22;251;48.704;9.210;2023-06-01T12:41:27;39.50;1.00
530;DHT22;251;48.704;9.210;2023-06-01T12:43:55;39.40;1.00
530;DHT22;251;48.704;9.210;2023-06-01T12:46:23;39.70;1.00
530;DHT22;251;48.704;9.210;2023-06-01T12:48:53;39.90;1.00
530;DHT22;251;48.704;9.210;2023-06-01T12:51:20;40.00;1.00
530;DHT22;251;48.704;9.210;2023-06-01T12:53:47;40.00;1.00
530;DHT22;251;48.704;9.210;2023-06-01T12:56:14;39.90;1.00
530;DHT22;251;48.704;9.210;2023-06-01T12:58:43;40.10;1.00
530;DHT22;251;48.704;9.210;2023-06-01T13:01:10;40.40;1.00
530;DHT22;251;48.704;9.210;2023-06-01T13:03:37;41.00;1.00
530;DHT22;251;48.704;9.210;2023-06-01T13:06:04;41.60;1.00
530;DHT22;251;48.704;9.210;2023-06-01T13:08:31;42.10;1.00
530;DHT22;251;48.704;9.210;2023-06-01T13:10:58;41.80;1.00
530;DHT22;251;48.704;9.210;2023-06-01T13:13:25;41.70;1.00
530;DHT22;251;48.704;9.210;2023-06-01T13:15:53;41.70;1.00
530;DHT22;251;48.704;9.210;2023-06-01T13:18:20;41.70;1.00
530;DHT22;251;48.704;9.210;2023-06-01T13:20:47;41.80;1.00
530;DHT22;251;48.704;9.210;2023-06-01T13:23:14;42.10;1.00
530;DHT22;251;48.704;9.210;2023-06-01T13:25:41;42.40;1.00
530;DHT22;251;48.704;9.210;2023-06-01T13:28:08;42.60;1.00
530;DHT22;251;48.704;9.210;2023-06-01T13:30:35;43.10;1.00
530;DHT22;251;48.704;9.210;2023-06-01T13:33:03;42.80;1.00
530;DHT22;251;48.704;9.210;2023-06-01T13:35:30;43.00;1.00
530;DHT22;251;48.704;9.210;2023-06-01T13:37:57;43.10;1.00
530;DHT22;251;48.704;9.210;2023-06-01T13:40:24;43.40;1.00
530;DHT22;251;48.704;9.210;2023-06-01T13:42:51;43.30;1.00
530;DHT22;251;48.704;9.210;2023-06-01T13:45:18;43.20;1.00
530;DHT22;251;48.704;9.210;2023-06-01T13:47:45;43.40;1.00
530;DHT22;251;48.704;9.210;2023-06-01T13:50:13;43.60;1.00
530;DHT22;251;48.704;9.210;2023-06-01T13:52:41;43.70;1.00
530;DHT22;251;48.704;9.210;2023-06-01T13:55:09;43.70;1.00
530;DHT22;251;48.704;9.210;2023-06-01T13:57:36;44.00;1.00
530;DHT22;251;48.704;9.210;2023-06-01T14:00:04;43.80;1.00
530;DHT22;251;48.704;9.210;2023-06-01T14:02:31;43.50;1.00
530;DHT22;251;48.704;9.210;2023-06-01T14:04:58;42.80;1.00
530;DHT22;251;48.704;9.210;2023-06-01T14:07:26;42.60;1.00
530;DHT22;251;48.704;9.210;2023-06-01T14:09:53;42.70;1.00
530;DHT22;251;48.704;9.210;2023-06-01T14:12:20;42.30;1.00
530;DHT22;251;48.704;9.210;2023-06-01T14:14:47;42.10;1.00
530;DHT22;251;48.704;9.210;2023-06-01T14:17:13;42.10;1.00
530;DHT22;251;48.704;9.210;2023-06-01T14:19:40;42.00;1.00
530;DHT22;251;48.704;9.210;2023-06-01T14:22:07;41.80;1.00
530;DHT22;251;48.704;9.210;2023-06-01T14:24:35;41.10;1.00
530;DHT22;251;48.704;9.210;2023-06-01T14:27:02;40.80;1.00
530;DHT22;251;48.704;9.210;2023-06-01T14:29:29;40.40;1.00
530;DHT22;251;48.704;9.210;2023-06-01T14:31:55;40.50;1.00
530;DHT22;251;48.704;9.210;2023-06-01T14:34:22;40.50;1.00
530;DHT22;251;48.704;9.210;2023-06-01T14:36:49;40.40;1.00
530;DHT22;251;48.704;9.210;2023-06-01T14:39:17;39.90;1.00
530;DHT22;251;48.704;9.210;2023-06-01T14:41:45;39.60;1.00
530;DHT22;251;48.704;9.210;2023-06-01T14:44:12;39.30;1.00
530;DHT22;251;48.704;9.210;2023-06-01T14:46:39;38.80;1.00
530;DHT22;251;48.704;9.210;2023-06-01T14:49:07;38.50;1.00
530;DHT22;251;48.704;9.210;2023-06-01T14:51:34;38.30;1.00
530;DHT22;251;48.704;9.210;2023-06-01T14:54:00;38.10;1.00
530;DHT22;251;48.704;9.210;2023-06-01T14:56:27;38.20;1.00
530;DHT22;251;48.704;9.210;2023-06-01T14:58:56;38.30;1.00
530;DHT22;251;48.704;9.210;2023-06-01T15:01:23;38.70;1.00
530;DHT22;251;48.704;9.210;2023-06-01T15:03:50;38.90;1.00
530;DHT22;251;48.704;9.210;2023-06-01T15:06:17;38.80;1.00
530;DHT22;251;48.704;9.210;2023-06-01T15:08:43;38.50;1.00
530;DHT22;251;48.704;9.210;2023-06-01T15:11:10;37.90;1.00
530;DHT22;251;48.704;9.210;2023-06-01T15:13:37;36.40;1.00
530;DHT22;251;48.704;9.210;2023-06-01T15:16:06;36.40;1.00
530;DHT22;251;48.704;9.210;2023-06-01T15:18:33;36.10;1.00
530;DHT22;251;48.704;9.210;2023-06-01T15:21:00;36.20;1.00
530;DHT22;251;48.704;9.210;2023-06-01T15:23:27;36.30;1.00
530;DHT22;251;48.704;9.210;2023-06-01T15:25:54;36.40;1.00
530;DHT22;251;48.704;9.210;2023-06-01T15:28:21;36.40;1.00
530;DHT22;251;48.704;9.210;2023-06-01T15:30:47;36.70;1.00
530;DHT22;251;48.704;9.210;2023-06-01T15:33:16;37.20;1.00
530;DHT22;251;48.704;9.210;2023-06-01T15:35:42;37.50;1.00
530;DHT22;251;48.704;9.210;2023-06-01T15:38:09;38.30;1.00
530;DHT22;251;48.704;9.210;2023-06-01T15:40:37;39.10;1.00
530;DHT22;251;48.704;9.210;2023-06-01T15:43:05;39.90;1.00
530;DHT22;251;48.704;9.210;2023-06-01T15:45:31;39.80;1.00
530;DHT22;251;48.704;9.210;2023-06-01T15:47:58;40.40;1.00
530;DHT22;251;48.704;9.210;2023-06-01T15:50:26;41.00;1.00
530;DHT22;251;48.704;9.210;2023-06-01T15:52:53;41.30;1.00
530;DHT22;251;48.704;9.210;2023-06-01T15:55:20;41.60;1.00
530;DHT22;251;48.704;9.210;2023-06-01T15:57:47;42.00;1.00
530;DHT22;251;48.704;9.210;2023-06-01T16:00:14;42.30;1.00
530;DHT22;251;48.704;9.210;2023-06-01T16:02:41;42.10;1.00
530;DHT22;251;48.704;9.210;2023-06-01T16:05:08;41.70;1.00
530;DHT22;251;48.704;9.210;2023-06-01T16:07:36;41.30;1.00
530;DHT22;251;48.704;9.210;2023-06-01T16:10:04;41.30;1.00
530;DHT22;251;48.704;9.210;2023-06-01T16:12:31;41.30;1.00
530;DHT22;251;48.704;9.210;2023-06-01T16:14:57;41.70;1.00
530;DHT22;251;48.704;9.210;2023-06-01T16:17:24;42.00;1.00
530;DHT22;251;48.704;9.210;2023-06-01T16:19:51;42.30;1.00
530;DHT22;251;48.704;9.210;2023-06-01T16:22:18;42.60;1.00
530;DHT22;251;48.704;9.210;2023-06-01T16:24:46;42.90;1.00
530;DHT22;251;48.704;9.210;2023-06-01T16:27:13;43.20;1.00
530;DHT22;251;48.704;9.210;2023-06-01T16:29:40;43.40;1.00
530;DHT22;251;48.704;9.210;2023-06-01T16:32:07;43.40;1.00
530;DHT22;251;48.704;9.210;2023-06-01T16:34:34;43.10;1.00
530;DHT22;251;48.704;9.210;2023-06-01T16:37:00;42.90;1.00
530;DHT22;251;48.704;9.210;2023-06-01T16:39:27;42.90;1.00
530;DHT22;251;48.704;9.210;2023-06-01T16:41:55;42.90;1.00
530;DHT22;251;48.704;9.210;2023-06-01T16:44:22;43.00;1.00
530;DHT22;251;48.704;9.210;2023-06-01T16:46:49;42.90;1.00
530;DHT22;251;48.704;9.210;2023-06-01T16:49:16;42.70;1.00
530;DHT22;251;48.704;9.210;2023-06-01T16:51:43;42.60;1.00
530;DHT22;251;48.704;9.210;2023-06-01T16:54:11;42.60;1.00
530;DHT22;251;48.704;9.210;2023-06-01T16:56:38;42.90;1.00
530;DHT22;251;48.704;9.210;2023-06-01T16:59:06;42.90;1.00
530;DHT22;251;48.704;9.210;2023-06-01T17:05:20;42.70;1.00
530;DHT22;251;48.704;9.210;2023-06-01T17:07:47;42.40;1.00
530;DHT22;251;48.704;9.210;2023-06-01T17:10:14;42.30;1.00
530;DHT22;251;48.704;9.210;2023-06-01T17:12:41;42.30;1.00
530;DHT22;251;48.704;9.210;2023-06-01T17:15:09;41.80;1.00
530;DHT22;251;48.704;9.210;2023-06-01T17:17:36;41.60;1.00
530;DHT22;251;48.704;9.210;2023-06-01T17:20:06;41.50;1.00